sensor_id;sensor_type;location;lat;lon;timestamp;P1;durP1;ratioP1;P2;durP2;ratioP2
46014;SDS011;36844;51.898;-0.874;2023-06-14T00:01:10;6.30;;;3.10;;
46014;SDS011;36844;51.898;-0.874;2023-06-14T00:03:38;6.05;;;2.40;;
46014;SDS011;36844;51.898;-0.874;2023-06-14T00:06:04;2.97;;;2.15;;
46014;SDS011;36844;51.898;-0.874;2023-06-14T00:08:29;5.18;;;1.88;;
46014;SDS011;36844;51.898;-0.874;2023-06-14T00:10:55;2.95;;;2.05;;
46014;SDS011;36844;51.898;-0.874;2023-06-14T00:13:20;5.03;;;2.20;;
46014;SDS011;36844;51.898;-0.874;2023-06-14T00:15:46;3.85;;;2.03;;
46014;SDS011;36844;51.898;-0.874;2023-06-14T00:18:12;2.78;;;1.92;;
46014;SDS011;36844;51.898;-0.874;2023-06-14T00:20:38;3.47;;;1.80;;
46014;SDS011;36844;51.898;-0.874;2023-06-14T00:23:04;2.55;;;1.80;;
46014;SDS011;36844;51.898;-0.874;2023-06-14T00:25:29;4.55;;;2.00;;
46014;SDS011;36844;51.898;-0.874;2023-06-14T00:27:55;3.00;;;2.30;;
46014;SDS011;36844;51.898;-0.874;2023-06-14T00:30:21;2.15;;;1.75;;
46014;SDS011;36844;51.898;-0.874;2023-06-14T00:32:47;4.47;;;2.53;;
46014;SDS011;36844;51.898;-0.874;2023-06-14T00:35:13;3.95;;;2.15;;
46014;SDS011;36844;51.898;-0.874;2023-06-14T00:37:38;3.88;;;2.00;;
46014;SDS011;36844;51.898;-0.874;2023-06-14T00:40:04;3.25;;;2.28;;
46014;SDS011;36844;51.898;-0.874;2023-06-14T00:42:30;3.60;;;2.08;;
46014;SDS011;36844;51.898;-0.874;2023-06-14T00:44:56;8.10;;;2.17;;
46014;SDS011;36844;51.898;-0.874;2023-06-14T00:47:22;2.65;;;2.05;;
46014;SDS011;36844;51.898;-0.874;2023-06-14T00:49:48;5.90;;;1.55;;
46014;SDS011;36844;51.898;-0.874;2023-06-14T00:52:14;2.70;;;1.92;;
46014;SDS011;36844;51.898;-0.874;2023-06-14T00:54:41;5.47;;;1.70;;
46014;SDS011;36844;51.898;-0.874;2023-06-14T00:57:07;3.72;;;1.75;;
46014;SDS011;36844;51.898;-0.874;2023-06-14T00:59:33;2.85;;;2.13;;
46014;SDS011;36844;51.898;-0.874;2023-06-14T01:02:03;4.90;;;1.88;;
46014;SDS011;36844;51.898;-0.874;2023-06-14T01:04:29;3.92;;;1.70;;
46014;SDS011;36844;51.898;-0.874;2023-06-14T01:09:27;2.75;;;1.95;;
46014;SDS011;36844;51.898;-0.874;2023-06-14T01:12:11;2.35;;;1.70;;
46014;SDS011;36844;51.898;-0.874;2023-06-14T01:14:42;2.85;;;1.70;;
46014;SDS011;36844;51.898;-0.874;2023-06-14T01:17:08;6.20;;;2.92;;
46014;SDS011;36844;51.898;-0.874;2023-06-14T01:19:41;2.35;;;1.60;;
46014;SDS011;36844;51.898;-0.874;2023-06-14T01:22:07;3.10;;;2.00;;
46014;SDS011;36844;51.898;-0.874;2023-06-14T01:24:33;2.58;;;1.77;;
46014;SDS011;36844;51.898;-0.874;2023-06-14T01:26:59;3.45;;;1.60;;
46014;SDS011;36844;51.898;-0.874;2023-06-14T01:29:25;2.95;;;1.88;;
46014;SDS011;36844;51.898;-0.874;2023-06-14T01:31:53;6.07;;;2.33;;
46014;SDS011;36844;51.898;-0.874;2023-06-14T01:34:19;3.03;;;1.85;;
46014;SDS011;36844;51.898;-0.874;2023-06-14T01:36:44;3.33;;;1.85;;
46014;SDS011;36844;51.898;-0.874;2023-06-14T01:39:12;2.20;;;1.27;;
46014;SDS011;36844;51.898;-0.874;2023-06-14T01:41:39;3.00;;;1.75;;
46014;SDS011;36844;51.898;-0.874;2023-06-14T01:44:05;2.85;;;1.40;;
46014;SDS011;36844;51.898;-0.874;2023-06-14T01:46:31;2.40;;;1.65;;
46014;SDS011;36844;51.898;-0.874;2023-06-14T01:48:56;3.15;;;1.60;;
46014;SDS011;36844;51.898;-0.874;2023-06-14T01:51:22;4.95;;;1.50;;
46014;SDS011;36844;51.898;-0.874;2023-06-14T01:53:47;2.58;;;1.70;;
46014;SDS011;36844;51.898;-0.874;2023-06-14T01:56:13;3.33;;;1.65;;
46014;SDS011;36844;51.898;-0.874;2023-06-14T01:58:38;1.75;;;1.17;;
46014;SDS011;36844;51.898;-0.874;2023-06-14T02:01:05;2.65;;;1.73;;
46014;SDS011;36844;51.898;-0.874;2023-06-14T02:03:31;5.03;;;1.80;;
46014;SDS011;36844;51.898;-0.874;2023-06-14T02:06:00;2.10;;;1.33;;
46014;SDS011;36844;51.898;-0.874;2023-06-14T02:08:27;3.25;;;1.52;;
46014;SDS011;36844;51.898;-0.874;2023-06-14T02:10:53;3.20;;;1.45;;
46014;SDS011;36844;51.898;-0.874;2023-06-14T02:13:18;2.30;;;1.75;;
46014;SDS011;36844;51.898;-0.874;2023-06-14T02:15:43;2.25;;;1.20;;
46014;SDS011;36844;51.898;-0.874;2023-06-14T02:18:10;3.00;;;1.95;;
46014;SDS011;36844;51.898;-0.874;2023-06-14T02:20:36;9.18;;;1.52;;
46014;SDS011;36844;51.898;-0.874;2023-06-14T02:23:01;4.55;;;1.88;;
46014;SDS011;36844;51.898;-0.874;2023-06-14T02:25:27;3.95;;;1.50;;
46014;SDS011;36844;51.898;-0.874;2023-06-14T02:27:55;3.38;;;1.75;;
46014;SDS011;36844;51.898;-0.874;2023-06-14T02:30:20;5.88;;;2.08;;
46014;SDS011;36844;51.898;-0.874;2023-06-14T02:32:46;3.50;;;1.63;;
46014;SDS011;36844;51.898;-0.874;2023-06-14T02:35:13;2.78;;;1.40;;
46014;SDS011;36844;51.898;-0.874;2023-06-14T02:37:39;3.70;;;1.52;;
46014;SDS011;36844;51.898;-0.874;2023-06-14T02:40:05;3.25;;;1.67;;
46014;SDS011;36844;51.898;-0.874;2023-06-14T02:42:31;3.55;;;1.58;;
46014;SDS011;36844;51.898;-0.874;2023-06-14T02:44:56;2.17;;;1.50;;
46014;SDS011;36844;51.898;-0.874;2023-06-14T02:47:21;4.55;;;1.27;;
46014;SDS011;36844;51.898;-0.874;2023-06-14T02:49:47;2.85;;;1.35;;
46014;SDS011;36844;51.898;-0.874;2023-06-14T02:52:12;2.67;;;1.30;;
46014;SDS011;36844;51.898;-0.874;2023-06-14T02:54:38;2.75;;;1.40;;
46014;SDS011;36844;51.898;-0.874;2023-06-14T02:57:03;2.83;;;1.90;;
46014;SDS011;36844;51.898;-0.874;2023-06-14T02:59:28;2.30;;;1.35;;
46014;SDS011;36844;51.898;-0.874;2023-06-14T03:01:54;3.00;;;1.63;;
46014;SDS011;36844;51.898;-0.874;2023-06-14T03:04:20;3.70;;;1.98;;
46014;SDS011;36844;51.898;-0.874;2023-06-14T03:06:45;2.60;;;1.70;;
46014;SDS011;36844;51.898;-0.874;2023-06-14T03:09:15;2.13;;;1.40;;
46014;SDS011;36844;51.898;-0.874;2023-06-14T03:11:41;3.55;;;1.63;;
46014;SDS011;36844;51.898;-0.874;2023-06-14T03:14:06;2.50;;;1.52;;
46014;SDS011;36844;51.898;-0.874;2023-06-14T03:16:33;3.63;;;1.60;;
46014;SDS011;36844;51.898;-0.874;2023-06-14T03:18:58;3.35;;;1.80;;
46014;SDS011;36844;51.898;-0.874;2023-06-14T03:21:24;2.83;;;1.85;;
46014;SDS011;36844;51.898;-0.874;2023-06-14T03:23:50;2.17;;;1.55;;
46014;SDS011;36844;51.898;-0.874;2023-06-14T03:26:17;3.45;;;1.85;;
46014;SDS011;36844;51.898;-0.874;2023-06-14T03:28:46;3.42;;;1.77;;
46014;SDS011;36844;51.898;-0.874;2023-06-14T03:31:13;2.60;;;2.00;;
46014;SDS011;36844;51.898;-0.874;2023-06-14T03:33:39;5.10;;;1.70;;
46014;SDS011;36844;51.898;-0.874;2023-06-14T03:36:05;3.00;;;1.63;;
46014;SDS011;36844;51.898;-0.874;2023-06-14T03:38:31;3.33;;;1.55;;
46014;SDS011;36844;51.898;-0.874;2023-06-14T03:40:57;4.28;;;1.60;;
46014;SDS011;36844;51.898;-0.874;2023-06-14T03:43:22;4.78;;;1.40;;
46014;SDS011;36844;51.898;-0.874;2023-06-14T03:45:48;2.33;;;1.58;;
46014;SDS011;36844;51.898;-0.874;2023-06-14T03:48:13;4.18;;;1.75;;
46014;SDS011;36844;51.898;-0.874;2023-06-14T03:50:38;2.95;;;1.80;;
46014;SDS011;36844;51.898;-0.874;2023-06-14T03:53:04;3.55;;;2.05;;
46014;SDS011;36844;51.898;-0.874;2023-06-14T03:55:29;2.30;;;1.42;;
46014;SDS011;36844;51.898;-0.874;2023-06-14T03:57:56;2.88;;;1.73;;
46014;SDS011;36844;51.898;-0.874;2023-06-14T04:00:22;2.70;;;1.60;;
46014;SDS011;36844;51.898;-0.874;2023-06-14T04:02:47;3.85;;;1.45;;
46014;SDS011;36844;51.898;-0.874;2023-06-14T04:05:13;3.30;;;1.98;;
46014;SDS011;36844;51.898;-0.874;2023-06-14T04:07:41;3.90;;;1.88;;
46014;SDS011;36844;51.898;-0.874;2023-06-14T04:10:10;3.17;;;1.52;;
46014;SDS011;36844;51.898;-0.874;2023-06-14T04:12:39;2.65;;;1.55;;
46014;SDS011;36844;51.898;-0.874;2023-06-14T04:15:05;1.70;;;1.33;;
46014;SDS011;36844;51.898;-0.874;2023-06-14T04:17:31;4.75;;;1.83;;
46014;SDS011;36844;51.898;-0.874;2023-06-14T04:20:00;2.25;;;1.58;;
46014;SDS011;36844;51.898;-0.874;2023-06-14T04:22:29;3.13;;;1.67;;
46014;SDS011;36844;51.898;-0.874;2023-06-14T04:24:55;3.95;;;1.70;;
46014;SDS011;36844;51.898;-0.874;2023-06-14T04:27:21;4.93;;;2.50;;
46014;SDS011;36844;51.898;-0.874;2023-06-14T04:29:50;2.70;;;1.77;;
46014;SDS011;36844;51.898;-0.874;2023-06-14T04:32:30;2.78;;;1.40;;
46014;SDS011;36844;51.898;-0.874;2023-06-14T04:34:58;2.83;;;1.60;;
46014;SDS011;36844;51.898;-0.874;2023-06-14T04:37:27;2.53;;;1.73;;
46014;SDS011;36844;51.898;-0.874;2023-06-14T04:39:54;6.10;;;1.75;;
46014;SDS011;36844;51.898;-0.874;2023-06-14T04:42:21;2.22;;;1.60;;
46014;SDS011;36844;51.898;-0.874;2023-06-14T04:44:49;2.33;;;1.48;;
46014;SDS011;36844;51.898;-0.874;2023-06-14T04:47:16;3.33;;;1.88;;
46014;SDS011;36844;51.898;-0.874;2023-06-14T04:49:42;2.53;;;1.67;;
46014;SDS011;36844;51.898;-0.874;2023-06-14T04:52:07;2.90;;;1.90;;
46014;SDS011;36844;51.898;-0.874;2023-06-14T04:54:35;2.03;;;1.52;;
46014;SDS011;36844;51.898;-0.874;2023-06-14T04:57:02;3.42;;;1.52;;
46014;SDS011;36844;51.898;-0.874;2023-06-14T04:59:29;3.78;;;1.67;;
46014;SDS011;36844;51.898;-0.874;2023-06-14T05:01:58;5.15;;;2.00;;
46014;SDS011;36844;51.898;-0.874;2023-06-14T05:04:25;2.67;;;1.60;;
46014;SDS011;36844;51.898;-0.874;2023-06-14T05:06:51;3.25;;;1.65;;
46014;SDS011;36844;51.898;-0.874;2023-06-14T05:09:19;2.95;;;1.38;;
46014;SDS011;36844;51.898;-0.874;2023-06-14T05:11:45;2.17;;;1.58;;
46014;SDS011;36844;51.898;-0.874;2023-06-14T05:14:10;3.55;;;1.70;;
46014;SDS011;36844;51.898;-0.874;2023-06-14T05:16:36;1.90;;;1.27;;
46014;SDS011;36844;51.898;-0.874;2023-06-14T05:19:02;3.78;;;1.70;;
46014;SDS011;36844;51.898;-0.874;2023-06-14T05:21:29;2.38;;;1.27;;
46014;SDS011;36844;51.898;-0.874;2023-06-14T05:23:55;3.55;;;2.08;;
46014;SDS011;36844;51.898;-0.874;2023-06-14T05:26:20;3.45;;;1.40;;
46014;SDS011;36844;51.898;-0.874;2023-06-14T05:28:48;4.03;;;1.70;;
46014;SDS011;36844;51.898;-0.874;2023-06-14T05:31:14;3.45;;;1.35;;
46014;SDS011;36844;51.898;-0.874;2023-06-14T05:33:40;4.28;;;1.70;;
46014;SDS011;36844;51.898;-0.874;2023-06-14T05:36:05;3.60;;;1.45;;
46014;SDS011;36844;51.898;-0.874;2023-06-14T05:38:30;3.47;;;1.42;;
46014;SDS011;36844;51.898;-0.874;2023-06-14T05:40:56;3.05;;;1.30;;
46014;SDS011;36844;51.898;-0.874;2023-06-14T05:43:21;2.15;;;1.55;;
46014;SDS011;36844;51.898;-0.874;2023-06-14T05:45:46;3.25;;;1.65;;
46014;SDS011;36844;51.898;-0.874;2023-06-14T05:48:12;4.57;;;1.98;;
46014;SDS011;36844;51.898;-0.874;2023-06-14T05:50:37;4.35;;;1.67;;
46014;SDS011;36844;51.898;-0.874;2023-06-14T05:53:02;3.95;;;1.63;;
46014;SDS011;36844;51.898;-0.874;2023-06-14T05:55:27;3.20;;;1.50;;
46014;SDS011;36844;51.898;-0.874;2023-06-14T05:57:53;4.57;;;1.60;;
46014;SDS011;36844;51.898;-0.874;2023-06-14T06:00:18;3.38;;;1.50;;
46014;SDS011;36844;51.898;-0.874;2023-06-14T06:02:45;3.22;;;1.65;;
46014;SDS011;36844;51.898;-0.874;2023-06-14T06:05:11;5.53;;;1.90;;
46014;SDS011;36844;51.898;-0.874;2023-06-14T06:07:37;3.25;;;1.83;;
46014;SDS011;36844;51.898;-0.874;2023-06-14T06:10:05;2.58;;;1.40;;
46014;SDS011;36844;51.898;-0.874;2023-06-14T06:12:31;2.60;;;1.70;;
46014;SDS011;36844;51.898;-0.874;2023-06-14T06:14:57;1.80;;;1.20;;
46014;SDS011;36844;51.898;-0.874;2023-06-14T06:17:23;2.85;;;1.45;;
46014;SDS011;36844;51.898;-0.874;2023-06-14T06:19:48;3.50;;;1.60;;
46014;SDS011;36844;51.898;-0.874;2023-06-14T06:22:13;4.05;;;1.50;;
46014;SDS011;36844;51.898;-0.874;2023-06-14T06:24:39;3.60;;;1.55;;
46014;SDS011;36844;51.898;-0.874;2023-06-14T06:27:04;2.78;;;1.35;;
46014;SDS011;36844;51.898;-0.874;2023-06-14T06:29:30;2.47;;;1.58;;
46014;SDS011;36844;51.898;-0.874;2023-06-14T06:31:55;5.85;;;1.95;;
46014;SDS011;36844;51.898;-0.874;2023-06-14T06:34:21;5.15;;;2.58;;
46014;SDS011;36844;51.898;-0.874;2023-06-14T06:36:46;5.72;;;2.22;;
46014;SDS011;36844;51.898;-0.874;2023-06-14T06:39:12;6.68;;;2.58;;
46014;SDS011;36844;51.898;-0.874;2023-06-14T06:41:40;18.73;;;3.45;;
46014;SDS011;36844;51.898;-0.874;2023-06-14T06:44:06;5.68;;;2.78;;
46014;SDS011;36844;51.898;-0.874;2023-06-14T06:46:32;7.72;;;2.20;;
46014;SDS011;36844;51.898;-0.874;2023-06-14T06:48:58;6.30;;;2.75;;
46014;SDS011;36844;51.898;-0.874;2023-06-14T06:51:23;9.13;;;2.55;;
46014;SDS011;36844;51.898;-0.874;2023-06-14T06:53:55;7.32;;;2.45;;
46014;SDS011;36844;51.898;-0.874;2023-06-14T06:56:20;5.07;;;2.10;;
46014;SDS011;36844;51.898;-0.874;2023-06-14T06:58:48;6.88;;;1.60;;
46014;SDS011;36844;51.898;-0.874;2023-06-14T07:01:14;7.18;;;2.00;;
46014;SDS011;36844;51.898;-0.874;2023-06-14T07:03:40;9.10;;;2.97;;
46014;SDS011;36844;51.898;-0.874;2023-06-14T07:06:06;6.95;;;2.30;;
46014;SDS011;36844;51.898;-0.874;2023-06-14T07:08:31;6.47;;;2.97;;
46014;SDS011;36844;51.898;-0.874;2023-06-14T07:10:56;4.32;;;1.98;;
46014;SDS011;36844;51.898;-0.874;2023-06-14T07:13:22;5.97;;;2.35;;
46014;SDS011;36844;51.898;-0.874;2023-06-14T07:15:47;4.97;;;1.77;;
46014;SDS011;36844;51.898;-0.874;2023-06-14T07:18:12;4.85;;;2.28;;
46014;SDS011;36844;51.898;-0.874;2023-06-14T07:20:38;17.38;;;2.55;;
46014;SDS011;36844;51.898;-0.874;2023-06-14T07:23:03;4.03;;;1.85;;
46014;SDS011;36844;51.898;-0.874;2023-06-14T07:25:29;6.80;;;2.00;;
46014;SDS011;36844;51.898;-0.874;2023-06-14T07:27:55;3.72;;;1.90;;
46014;SDS011;36844;51.898;-0.874;2023-06-14T07:30:20;15.05;;;3.20;;
46014;SDS011;36844;51.898;-0.874;2023-06-14T07:32:45;6.20;;;2.78;;
46014;SDS011;36844;51.898;-0.874;2023-06-14T07:35:11;4.65;;;1.80;;
46014;SDS011;36844;51.898;-0.874;2023-06-14T07:37:36;10.40;;;1.90;;
46014;SDS011;36844;51.898;-0.874;2023-06-14T07:40:01;8.95;;;1.95;;
46014;SDS011;36844;51.898;-0.874;2023-06-14T07:42:32;6.32;;;2.50;;
46014;SDS011;36844;51.898;-0.874;2023-06-14T07:45:00;4.30;;;1.80;;
46014;SDS011;36844;51.898;-0.874;2023-06-14T07:47:26;10.15;;;2.25;;
46014;SDS011;36844;51.898;-0.874;2023-06-14T07:49:51;6.53;;;2.13;;
46014;SDS011;36844;51.898;-0.874;2023-06-14T07:52:16;5.40;;;2.13;;
46014;SDS011;36844;51.898;-0.874;2023-06-14T07:54:42;6.03;;;2.00;;
46014;SDS011;36844;51.898;-0.874;2023-06-14T07:57:08;8.50;;;2.50;;
46014;SDS011;36844;51.898;-0.874;2023-06-14T07:59:33;6.75;;;2.33;;
46014;SDS011;36844;51.898;-0.874;2023-06-14T08:01:59;5.85;;;1.85;;
46014;SDS011;36844;51.898;-0.874;2023-06-14T08:04:24;5.45;;;2.78;;
46014;SDS011;36844;51.898;-0.874;2023-06-14T08:06:50;7.65;;;1.85;;
46014;SDS011;36844;51.898;-0.874;2023-06-14T08:09:15;3.38;;;1.88;;
46014;SDS011;36844;51.898;-0.874;2023-06-14T08:11:41;6.40;;;2.42;;
46014;SDS011;36844;51.898;-0.874;2023-06-14T08:14:06;6.32;;;1.65;;
46014;SDS011;36844;51.898;-0.874;2023-06-14T08:16:32;5.07;;;1.95;;
46014;SDS011;36844;51.898;-0.874;2023-06-14T08:18:57;3.47;;;1.90;;
46014;SDS011;36844;51.898;-0.874;2023-06-14T08:21:22;8.30;;;3.25;;
46014;SDS011;36844;51.898;-0.874;2023-06-14T08:23:48;7.35;;;2.00;;
46014;SDS011;36844;51.898;-0.874;2023-06-14T08:26:14;5.78;;;2.28;;
46014;SDS011;36844;51.898;-0.874;2023-06-14T08:28:39;13.27;;;3.13;;
46014;SDS011;36844;51.898;-0.874;2023-06-14T08:31:05;5.60;;;2.10;;
46014;SDS011;36844;51.898;-0.874;2023-06-14T08:33:30;8.20;;;2.00;;
46014;SDS011;36844;51.898;-0.874;2023-06-14T08:35:58;3.88;;;1.73;;
46014;SDS011;36844;51.898;-0.874;2023-06-14T08:38:23;8.52;;;2.58;;
46014;SDS011;36844;51.898;-0.874;2023-06-14T08:40:50;7.78;;;2.00;;
46014;SDS011;36844;51.898;-0.874;2023-06-14T08:43:17;4.85;;;2.08;;
46014;SDS011;36844;51.898;-0.874;2023-06-14T08:45:42;6.28;;;1.75;;
46014;SDS011;36844;51.898;-0.874;2023-06-14T08:48:08;6.18;;;2.10;;
46014;SDS011;36844;51.898;-0.874;2023-06-14T08:50:34;3.28;;;1.67;;
46014;SDS011;36844;51.898;-0.874;2023-06-14T08:53:01;6.68;;;1.95;;
46014;SDS011;36844;51.898;-0.874;2023-06-14T08:55:28;3.42;;;1.85;;
46014;SDS011;36844;51.898;-0.874;2023-06-14T08:57:55;7.22;;;2.20;;
46014;SDS011;36844;51.898;-0.874;2023-06-14T09:00:22;3.72;;;2.00;;
46014;SDS011;36844;51.898;-0.874;2023-06-14T09:02:49;8.70;;;2.10;;
46014;SDS011;36844;51.898;-0.874;2023-06-14T09:05:15;6.20;;;2.05;;
46014;SDS011;36844;51.898;-0.874;2023-06-14T09:07:43;3.63;;;2.22;;
46014;SDS011;36844;51.898;-0.874;2023-06-14T09:10:09;5.78;;;2.55;;
46014;SDS011;36844;51.898;-0.874;2023-06-14T09:12:40;3.28;;;1.90;;
46014;SDS011;36844;51.898;-0.874;2023-06-14T09:15:05;5.32;;;2.30;;
46014;SDS011;36844;51.898;-0.874;2023-06-14T09:17:33;7.45;;;2.15;;
46014;SDS011;36844;51.898;-0.874;2023-06-14T09:20:02;8.27;;;2.05;;
46014;SDS011;36844;51.898;-0.874;2023-06-14T09:22:31;5.05;;;2.53;;
46014;SDS011;36844;51.898;-0.874;2023-06-14T09:25:00;4.25;;;2.05;;
46014;SDS011;36844;51.898;-0.874;2023-06-14T09:27:26;7.15;;;2.45;;
46014;SDS011;36844;51.898;-0.874;2023-06-14T09:29:54;6.93;;;2.30;;
46014;SDS011;36844;51.898;-0.874;2023-06-14T09:32:20;10.35;;;2.80;;
46014;SDS011;36844;51.898;-0.874;2023-06-14T09:34:46;5.63;;;2.25;;
46014;SDS011;36844;51.898;-0.874;2023-06-14T09:37:12;3.90;;;2.17;;
46014;SDS011;36844;51.898;-0.874;2023-06-14T09:39:50;5.55;;;2.40;;
46014;SDS011;36844;51.898;-0.874;2023-06-14T09:42:16;3.38;;;2.10;;
46014;SDS011;36844;51.898;-0.874;2023-06-14T09:44:48;7.00;;;2.40;;
46014;SDS011;36844;51.898;-0.874;2023-06-14T09:47:17;5.65;;;1.98;;
46014;SDS011;36844;51.898;-0.874;2023-06-14T09:49:43;4.30;;;2.38;;
46014;SDS011;36844;51.898;-0.874;2023-06-14T09:52:18;8.15;;;2.17;;
46014;SDS011;36844;51.898;-0.874;2023-06-14T09:54:45;6.28;;;2.60;;
46014;SDS011;36844;51.898;-0.874;2023-06-14T09:57:12;8.40;;;2.42;;
46014;SDS011;36844;51.898;-0.874;2023-06-14T09:59:40;4.22;;;2.08;;
46014;SDS011;36844;51.898;-0.874;2023-06-14T10:02:09;5.25;;;2.30;;
46014;SDS011;36844;51.898;-0.874;2023-06-14T10:04:39;5.32;;;2.30;;
46014;SDS011;36844;51.898;-0.874;2023-06-14T10:07:11;13.32;;;3.03;;
46014;SDS011;36844;51.898;-0.874;2023-06-14T10:09:46;8.77;;;2.80;;
46014;SDS011;36844;51.898;-0.874;2023-06-14T10:12:17;4.13;;;2.45;;
46014;SDS011;36844;51.898;-0.874;2023-06-14T10:14:50;4.85;;;2.80;;
46014;SDS011;36844;51.898;-0.874;2023-06-14T10:17:30;11.65;;;2.40;;
46014;SDS011;36844;51.898;-0.874;2023-06-14T10:22:47;8.25;;;2.92;;
46014;SDS011;36844;51.898;-0.874;2023-06-14T10:25:31;9.88;;;2.92;;
46014;SDS011;36844;51.898;-0.874;2023-06-14T10:33:34;8.70;;;2.55;;
46014;SDS011;36844;51.898;-0.874;2023-06-14T10:38:59;7.78;;;3.33;;
46014;SDS011;36844;51.898;-0.874;2023-06-14T10:41:29;6.10;;;3.00;;
46014;SDS011;36844;51.898;-0.874;2023-06-14T10:44:10;8.65;;;3.15;;
46014;SDS011;36844;51.898;-0.874;2023-06-14T10:46:56;8.82;;;3.40;;
46014;SDS011;36844;51.898;-0.874;2023-06-14T10:49:36;7.32;;;3.13;;
46014;SDS011;36844;51.898;-0.874;2023-06-14T10:52:07;5.15;;;2.45;;
46014;SDS011;36844;51.898;-0.874;2023-06-14T10:54:47;15.02;;;3.75;;
46014;SDS011;36844;51.898;-0.874;2023-06-14T10:57:20;5.90;;;2.72;;
46014;SDS011;36844;51.898;-0.874;2023-06-14T10:59:46;5.68;;;3.10;;
46014;SDS011;36844;51.898;-0.874;2023-06-14T11:05:13;7.95;;;2.53;;
46014;SDS011;36844;51.898;-0.874;2023-06-14T11:13:10;7.35;;;3.47;;
46014;SDS011;36844;51.898;-0.874;2023-06-14T11:15:36;6.70;;;3.08;;
46014;SDS011;36844;51.898;-0.874;2023-06-14T11:18:03;8.60;;;3.33;;
46014;SDS011;36844;51.898;-0.874;2023-06-14T11:20:30;6.38;;;2.65;;
46014;SDS011;36844;51.898;-0.874;2023-06-14T11:22:57;11.32;;;4.05;;
46014;SDS011;36844;51.898;-0.874;2023-06-14T11:25:24;10.20;;;3.72;;
46014;SDS011;36844;51.898;-0.874;2023-06-14T11:27:49;7.22;;;3.63;;
46014;SDS011;36844;51.898;-0.874;2023-06-14T11:30:15;6.53;;;3.35;;
46014;SDS011;36844;51.898;-0.874;2023-06-14T11:32:41;6.85;;;3.42;;
46014;SDS011;36844;51.898;-0.874;2023-06-14T11:35:07;12.48;;;3.95;;
46014;SDS011;36844;51.898;-0.874;2023-06-14T11:37:34;9.38;;;3.38;;
46014;SDS011;36844;51.898;-0.874;2023-06-14T11:40:02;6.20;;;3.25;;
46014;SDS011;36844;51.898;-0.874;2023-06-14T11:42:33;7.35;;;3.08;;
46014;SDS011;36844;51.898;-0.874;2023-06-14T11:44:59;6.45;;;3.03;;
46014;SDS011;36844;51.898;-0.874;2023-06-14T11:47:31;6.38;;;3.03;;
46014;SDS011;36844;51.898;-0.874;2023-06-14T11:49:58;6.70;;;2.60;;
46014;SDS011;36844;51.898;-0.874;2023-06-14T11:52:24;8.23;;;2.90;;
46014;SDS011;36844;51.898;-0.874;2023-06-14T11:54:49;5.88;;;2.58;;
46014;SDS011;36844;51.898;-0.874;2023-06-14T11:57:14;8.32;;;2.95;;
46014;SDS011;36844;51.898;-0.874;2023-06-14T11:59:43;7.22;;;3.00;;
46014;SDS011;36844;51.898;-0.874;2023-06-14T12:02:09;4.22;;;2.50;;
46014;SDS011;36844;51.898;-0.874;2023-06-14T12:04:35;4.63;;;2.53;;
46014;SDS011;36844;51.898;-0.874;2023-06-14T12:07:13;4.82;;;2.90;;
46014;SDS011;36844;51.898;-0.874;2023-06-14T12:12:22;6.07;;;3.45;;
46014;SDS011;36844;51.898;-0.874;2023-06-14T12:14:47;6.15;;;2.72;;
46014;SDS011;36844;51.898;-0.874;2023-06-14T12:17:16;7.38;;;3.40;;
46014;SDS011;36844;51.898;-0.874;2023-06-14T12:19:42;5.63;;;3.10;;
46014;SDS011;36844;51.898;-0.874;2023-06-14T12:22:12;8.60;;;3.70;;
46014;SDS011;36844;51.898;-0.874;2023-06-14T12:24:39;4.47;;;2.85;;
46014;SDS011;36844;51.898;-0.874;2023-06-14T12:27:07;8.30;;;3.65;;
46014;SDS011;36844;51.898;-0.874;2023-06-14T12:29:33;8.95;;;2.80;;
46014;SDS011;36844;51.898;-0.874;2023-06-14T12:31:58;11.10;;;3.30;;
46014;SDS011;36844;51.898;-0.874;2023-06-14T12:34:24;9.55;;;3.38;;
46014;SDS011;36844;51.898;-0.874;2023-06-14T12:36:50;6.72;;;3.22;;
46014;SDS011;36844;51.898;-0.874;2023-06-14T12:39:15;11.02;;;4.38;;
46014;SDS011;36844;51.898;-0.874;2023-06-14T12:41:41;11.02;;;3.95;;
46014;SDS011;36844;51.898;-0.874;2023-06-14T12:44:07;7.38;;;3.22;;
46014;SDS011;36844;51.898;-0.874;2023-06-14T12:46:32;7.43;;;3.55;;
46014;SDS011;36844;51.898;-0.874;2023-06-14T12:48:58;10.70;;;3.72;;
46014;SDS011;36844;51.898;-0.874;2023-06-14T12:51:23;7.53;;;3.28;;
46014;SDS011;36844;51.898;-0.874;2023-06-14T12:53:50;8.52;;;3.45;;
46014;SDS011;36844;51.898;-0.874;2023-06-14T12:56:15;7.10;;;3.75;;
46014;SDS011;36844;51.898;-0.874;2023-06-14T12:58:41;6.32;;;4.13;;
46014;SDS011;36844;51.898;-0.874;2023-06-14T13:01:07;8.45;;;3.30;;
46014;SDS011;36844;51.898;-0.874;2023-06-14T13:03:32;5.70;;;3.25;;
46014;SDS011;36844;51.898;-0.874;2023-06-14T13:06:01;6.80;;;3.95;;
46014;SDS011;36844;51.898;-0.874;2023-06-14T13:08:28;7.13;;;3.60;;
46014;SDS011;36844;51.898;-0.874;2023-06-14T13:10:53;7.65;;;3.42;;
46014;SDS011;36844;51.898;-0.874;2023-06-14T13:13:19;7.60;;;3.20;;
46014;SDS011;36844;51.898;-0.874;2023-06-14T13:15:44;7.97;;;3.50;;
46014;SDS011;36844;51.898;-0.874;2023-06-14T13:18:11;11.05;;;4.00;;
46014;SDS011;36844;51.898;-0.874;2023-06-14T13:20:38;12.43;;;3.60;;
46014;SDS011;36844;51.898;-0.874;2023-06-14T13:23:04;11.63;;;3.70;;
46014;SDS011;36844;51.898;-0.874;2023-06-14T13:25:31;6.53;;;3.25;;
46014;SDS011;36844;51.898;-0.874;2023-06-14T13:27:56;6.38;;;3.35;;
46014;SDS011;36844;51.898;-0.874;2023-06-14T13:30:21;5.68;;;3.40;;
46014;SDS011;36844;51.898;-0.874;2023-06-14T13:32:47;7.28;;;3.55;;
46014;SDS011;36844;51.898;-0.874;2023-06-14T13:35:13;8.98;;;3.58;;
46014;SDS011;36844;51.898;-0.874;2023-06-14T13:37:41;5.32;;;3.35;;
46014;SDS011;36844;51.898;-0.874;2023-06-14T13:40:06;8.90;;;3.22;;
46014;SDS011;36844;51.898;-0.874;2023-06-14T13:42:32;7.13;;;3.95;;
46014;SDS011;36844;51.898;-0.874;2023-06-14T13:44:58;5.82;;;3.20;;
46014;SDS011;36844;51.898;-0.874;2023-06-14T13:47:23;4.85;;;3.08;;
46014;SDS011;36844;51.898;-0.874;2023-06-14T13:49:49;7.60;;;3.83;;
46014;SDS011;36844;51.898;-0.874;2023-06-14T13:52:14;5.88;;;3.63;;
46014;SDS011;36844;51.898;-0.874;2023-06-14T13:54:39;9.27;;;3.63;;
46014;SDS011;36844;51.898;-0.874;2023-06-14T13:57:05;4.60;;;3.50;;
46014;SDS011;36844;51.898;-0.874;2023-06-14T13:59:31;4.97;;;3.67;;
46014;SDS011;36844;51.898;-0.874;2023-06-14T14:01:56;6.10;;;3.15;;
46014;SDS011;36844;51.898;-0.874;2023-06-14T14:04:22;4.90;;;3.40;;
46014;SDS011;36844;51.898;-0.874;2023-06-14T14:06:47;9.68;;;4.13;;
46014;SDS011;36844;51.898;-0.874;2023-06-14T14:09:13;15.00;;;3.63;;
46014;SDS011;36844;51.898;-0.874;2023-06-14T14:11:39;5.60;;;3.60;;
46014;SDS011;36844;51.898;-0.874;2023-06-14T14:14:06;4.97;;;3.53;;
46014;SDS011;36844;51.898;-0.874;2023-06-14T14:16:31;5.13;;;2.95;;
46014;SDS011;36844;51.898;-0.874;2023-06-14T14:18:57;6.55;;;3.58;;
46014;SDS011;36844;51.898;-0.874;2023-06-14T14:21:22;7.20;;;3.35;;
46014;SDS011;36844;51.898;-0.874;2023-06-14T14:23:48;7.10;;;3.50;;
46014;SDS011;36844;51.898;-0.874;2023-06-14T14:26:14;4.70;;;3.13;;
46014;SDS011;36844;51.898;-0.874;2023-06-14T14:28:41;6.55;;;4.13;;
46014;SDS011;36844;51.898;-0.874;2023-06-14T14:31:06;6.13;;;2.97;;
46014;SDS011;36844;51.898;-0.874;2023-06-14T14:33:31;5.30;;;3.40;;
46014;SDS011;36844;51.898;-0.874;2023-06-14T14:35:57;6.40;;;3.67;;
46014;SDS011;36844;51.898;-0.874;2023-06-14T14:38:22;11.20;;;3.42;;
46014;SDS011;36844;51.898;-0.874;2023-06-14T14:40:47;7.90;;;3.80;;
46014;SDS011;36844;51.898;-0.874;2023-06-14T14:43:13;5.38;;;3.40;;
46014;SDS011;36844;51.898;-0.874;2023-06-14T14:45:38;6.40;;;3.35;;
46014;SDS011;36844;51.898;-0.874;2023-06-14T14:48:04;8.98;;;3.65;;
46014;SDS011;36844;51.898;-0.874;2023-06-14T14:50:30;7.88;;;3.47;;
46014;SDS011;36844;51.898;-0.874;2023-06-14T14:52:55;7.85;;;3.00;;
46014;SDS011;36844;51.898;-0.874;2023-06-14T14:55:21;13.65;;;3.78;;